Latest Weather Observations for Woolshed

IDQ60801

Issued at 8:05 am EST Thursday 23 October 2014 (issued every 30 minutes, with the page automatically refreshed every 10 minutes)

About weather observations | Map of weather stations | Latest weather observations for QLD | Other Formats
Station Details ID: 033307 Name: WOOLSHED Lat: -19.42 Lon: 146.54 Height: 556.04 m
Data from the previous 72 hours. | See also: Recent months at Woolshed
Date/Time
EST
Temp
°C
App
Temp
°C
Dew
Point
Rel
Hum
%
Delta-T
°C
Wind Press
QNH
hPa
Press
MSL
hPa
Rain
since 9 am
mm
Dir
 
Spd
km/h
Gust
km/h
Spd
kts
Gust
kts
23/08:00am 19.6 19.6 14.2 71 3.2 SE 7 15 4 8 1021.8 1018.9 0.0
23/07:30am 19.0 19.3 14.9 77 2.4 ESE 7 17 4 9 1021.4 1018.5 0.0
23/07:00am 17.6 17.5 14.9 84 1.6 ESE 9 20 5 11 1021.2 1018.3 0.0
23/06:30am 16.4 16.8 14.8 90 0.9 E 6 11 3 6 1020.9 1017.9 0.0
23/06:00am 15.7 15.8 14.4 92 0.8 ESE 7 17 4 9 1020.6 1017.6 0.0
23/05:30am 15.6 15.6 14.3 92 0.8 ESE 7 17 4 9 1020.5 1017.5 0.0
23/05:00am 15.7 16.0 14.4 92 0.8 ESE 6 17 3 9 1020.3 1017.3 0.0
23/04:30am 15.9 15.7 14.6 92 0.8 ESE 9 19 5 10 1019.9 1017.0 0.0
23/04:00am 15.8 16.2 14.8 94 0.6 SE 6 13 3 7 1019.8 1016.9 0.0
23/03:30am 16.3 16.9 15.8 97 0.3 ESE 7 13 4 7 1019.9 1017.0 0.0
23/03:00am 16.9 18.1 15.9 94 0.6 ENE 4 9 2 5 1020.1 1017.1 0.0
23/02:30am 16.8 17.7 15.0 89 1.1 E 4 11 2 6 1020.3 1017.3 0.0
23/02:00am 17.6 17.4 15.8 89 1.1 NE 11 20 6 11 1020.5 1017.5 0.0
23/01:30am 17.6 17.5 15.9 90 1.0 NE 11 22 6 12 1020.9 1017.9 0.0
23/01:00am 17.6 17.9 16.1 91 0.9 NE 9 19 5 10 1021.2 1018.3 0.0
23/12:30am 17.7 17.8 16.4 92 0.8 NE 11 20 6 11 1021.5 1018.6 0.0
23/12:00am 17.9 18.0 16.4 91 0.9 NE 11 24 6 13 1021.7 1018.8 0.0
 
Date/Time
EST
Temp
°C
App
Temp
°C
Dew
Point
Rel
Hum
%
Delta-T
°C
Wind Press
QNH
hPa
Press
MSL
hPa
Rain
since 9 am
mm
Dir
 
Spd
km/h
Gust
km/h
Spd
kts
Gust
kts
22/11:30pm 18.0 17.7 16.5 91 0.9 NE 13 26 7 14 1022.1 1019.1 0.0
22/11:00pm 18.0 17.7 16.5 91 0.9 NE 13 24 7 13 1022.2 1019.2 0.0
22/10:30pm 18.0 17.6 16.3 90 1.0 NE 13 22 7 12 1022.2 1019.2 0.0
22/10:00pm 18.0 17.6 16.2 89 1.1 NE 13 24 7 13 1022.2 1019.2 0.0
22/09:30pm 18.2 17.8 16.2 88 1.2 NE 13 26 7 14 1022.0 1019.0 0.0
22/09:00pm 18.0 18.0 16.2 89 1.1 NE 11 20 6 11 1021.6 1018.7 0.0
22/08:30pm 18.2 18.6 16.2 88 1.2 NE 9 19 5 10 1021.5 1018.6 0.0
22/08:00pm 18.5 18.9 16.3 87 1.3 NNE 9 19 5 10 1021.5 1018.6 0.0
22/07:30pm 18.7 18.6 16.1 85 1.6 NNE 11 20 6 11 1021.3 1018.4 0.0
22/07:00pm 18.8 18.2 15.7 82 1.9 NNE 13 24 7 13 1021.1 1018.2 0.0
22/06:30pm 19.2 18.6 14.7 75 2.7 NNE 11 19 6 10 1020.7 1017.7 0.0
22/06:00pm 20.1 19.2 13.6 66 3.8 NNE 11 22 6 12 1020.4 1017.4 0.0
22/05:30pm 20.9 19.4 13.1 61 4.6 NNE 13 24 7 13 1020.3 1017.3 0.0
22/05:00pm 21.7 20.5 14.1 62 4.5 NNE 13 26 7 14 1020.1 1017.1 0.0
22/04:30pm 22.6 21.1 13.1 55 5.6 NE 13 22 7 12 1019.9 1017.0 0.0
22/04:00pm 23.5 21.9 12.8 51 6.3 NE 13 26 7 14 1019.7 1016.8 0.0
22/03:30pm 24.6 22.9 12.5 46 7.1 NNE 13 26 7 14 1019.7 1016.8 0.0
22/03:00pm 23.8 21.9 13.1 51 6.3 NE 15 22 8 12 1019.8 1016.9 0.0
22/02:30pm 25.0 24.1 14.8 53 6.2 NNE 13 24 7 13 1019.9 1017.0 0.0
22/02:00pm 23.8 22.7 15.3 59 5.2 NE 15 30 8 16 1020.2 1017.2 0.0
22/01:30pm 24.2 22.9 13.7 52 6.3 NE 13 24 7 13 1020.5 1017.5 0.0
22/01:00pm 23.9 22.9 13.4 51 6.2 E 11 20 6 11 1021.0 1018.1 0.0
22/12:30pm 23.8 23.6 14.8 57 5.5 E 9 24 5 13 1021.5 1018.6 0.0
22/12:00pm 23.4 22.6 15.2 60 5.0 E 13 28 7 15 1022.0 1019.0 0.0
22/11:30am 23.3 23.1 15.6 62 4.7 ESE 11 22 6 12 1022.4 1019.4 0.0
22/11:00am 22.4 22.8 16.2 68 3.8 ESE 9 19 5 10 1022.9 1020.0 0.0
22/10:30am 20.1 20.3 15.7 76 2.7 E 9 19 5 10 1023.1 1020.2 0.0
22/10:00am 19.3 19.7 16.2 82 1.9 ESE 9 19 5 10 1023.3 1020.4 0.0
22/09:30am 17.7 18.3 16.9 95 0.5 SE 9 15 5 8 1023.3 1020.4 0.0
22/09:00am 17.2 17.6 16.2 94 0.6 ESE 9 19 5 10 1023.3 1020.4 1.0
22/08:30am 17.8 18.3 16.5 92 0.8 SE 9 20 5 11 1023.1 1020.2 1.0
22/08:00am 17.2 18.2 16.4 95 0.5 SE 6 11 3 6 1022.8 1019.9 1.0
22/07:30am 17.0 17.4 16.2 95 0.5 SE 9 17 5 9 1022.6 1019.7 1.0
22/07:00am 16.6 17.6 16.4 99 0.1 ESE 6 17 3 9 1022.3 1019.3 1.0
22/06:30am 16.1 16.4 15.9 99 0.1 SE 9 15 5 8 1021.7 1018.8 1.0
22/06:00am 15.9 16.5 15.7 99 0.1 ESE 7 17 4 9 1021.7 1018.8 0.8
22/05:30am 16.0 16.6 15.8 99 0.1 ESE 7 17 4 9 1021.3 1018.4 0.2
22/05:00am 16.1 16.2 15.6 97 0.3 ESE 9 22 5 12 1021.1 1018.2 0.0
22/04:30am 17.0 16.2 15.2 89 1.1 SE 13 22 7 12 1020.8 1017.8 0.0
22/04:00am 16.8 16.8 15.3 91 0.9 ESE 9 22 5 12 1020.7 1017.7 0.0
22/03:30am 16.9 17.4 15.6 92 0.8 ESE 7 15 4 8 1020.8 1017.8 0.0
22/03:00am 15.8 16.2 14.8 94 0.6 SE 6 9 3 5 1020.9 1017.9 0.0
22/02:30am 15.9 16.6 14.4 91 0.9 ESE 4 7 2 4 1020.9 1017.9 0.0
22/02:00am 16.2 16.7 14.9 92 0.8 ESE 6 13 3 7 1021.5 1018.6 0.0
22/01:30am 16.1 16.8 14.6 91 0.9 ESE 4 9 2 5 1021.8 1018.9 0.0
22/01:00am 16.5 16.8 14.9 90 0.9 ESE 7 17 4 9 1022.4 1019.4 0.0
22/12:30am 16.9 17.4 15.1 89 1.1 E 6 11 3 6 1023.0 1020.1 0.0
22/12:00am 17.0 17.4 15.2 89 1.1 ESE 7 15 4 8 1023.2 1020.3 0.0
 
Date/Time
EST
Temp
°C
App
Temp
°C
Dew
Point
Rel
Hum
%
Delta-T
°C
Wind Press
QNH
hPa
Press
MSL
hPa
Rain
since 9 am
mm
Dir
 
Spd
km/h
Gust
km/h
Spd
kts
Gust
kts
21/11:30pm 17.3 17.6 15.1 87 1.3 ESE 7 17 4 9 1023.5 1020.6 0.0
21/11:00pm 18.1 18.2 15.4 84 1.6 E 9 20 5 11 1023.7 1020.8 0.0
21/10:30pm 18.7 18.8 15.4 81 2.0 E 9 19 5 10 1023.7 1020.8 0.0
21/10:00pm 18.8 18.9 15.5 81 2.0 ENE 9 15 5 8 1023.6 1020.7 0.0
21/09:30pm 18.8 18.5 15.5 81 2.0 NE 11 20 6 11 1023.5 1020.6 0.0
21/09:00pm 18.8 19.0 15.7 82 1.9 NE 9 17 5 9 1023.2 1020.3 0.0
21/08:30pm 18.7 18.9 15.8 83 1.8 NE 9 19 5 10 1022.9 1020.0 0.0
21/08:00pm 18.9 18.8 16.0 83 1.8 NNE 11 20 6 11 1022.6 1019.7 0.0
21/07:30pm 19.1 19.0 16.1 83 1.8 NE 11 20 6 11 1022.3 1019.3 0.0
21/07:00pm 19.4 19.0 16.2 82 2.0 NE 13 26 7 14 1022.0 1019.0 0.0
21/06:30pm 20.0 20.1 15.6 76 2.7 NNE 9 17 5 9 1021.7 1018.8 0.0
21/06:00pm 20.7 21.0 15.9 74 2.9 NNE 9 20 5 11 1021.5 1018.6 0.0
21/05:30pm 21.3 21.5 15.8 71 3.4 NE 9 19 5 10 1021.2 1018.3 0.0
21/05:00pm 22.3 21.3 14.7 62 4.6 NE 13 26 7 14 1020.8 1017.8 0.0
21/04:30pm 23.2 20.7 10.9 46 7.0 NNE 15 28 8 15 1020.4 1017.4 0.0
21/04:00pm 24.2 22.3 11.9 46 7.1 NE 13 30 7 16 1020.2 1017.2 0.0
21/03:30pm 23.8 21.0 11.5 46 7.1 NE 17 28 9 15 1020.3 1017.3 0.0
21/03:00pm 24.6 22.8 13.2 49 6.8 NNE 15 26 8 14 1020.2 1017.2 0.0
21/02:30pm 24.6 23.1 13.2 49 6.8 NNE 13 24 7 13 1020.4 1017.4 0.0
21/02:00pm 26.1 25.4 13.2 44 7.7 E 9 22 5 12 1020.5 1017.5 0.0
21/01:30pm 26.1 24.3 9.5 35 9.4 E 9 19 5 10 1021.0 1018.1 0.0
21/01:00pm 25.9 24.3 11.6 40 8.3 E 11 20 6 11 1021.3 1018.4 0.0
21/12:30pm 25.6 24.1 10.6 39 8.6 ENE 9 24 5 13 1021.8 1018.9 0.0
21/12:00pm 24.1 21.8 10.4 42 7.7 E 13 28 7 15 1022.3 1019.3 0.0
21/11:30am 23.7 22.4 11.4 46 7.1 E 9 19 5 10 1022.7 1019.8 0.0
21/11:00am 24.0 22.4 11.7 46 7.1 ESE 11 26 6 14 1023.0 1020.1 0.0
21/10:30am 22.7 21.1 11.7 49 6.3 E 11 26 6 14 1023.3 1020.4 0.0
21/10:00am 22.5 21.3 12.7 54 5.7 ESE 11 22 6 12 1023.4 1020.5 0.0
21/09:30am 22.6 22.0 14.7 61 4.8 ESE 11 20 6 11 1023.6 1020.7 0.0
21/09:00am 20.8 20.7 14.9 69 3.5 ESE 9 17 5 9 1023.5 1020.6 0.0
21/08:30am 20.2 20.2 16.2 78 2.5 ESE 11 17 6 9 1023.4 1020.5 0.0
21/08:00am 18.3 18.1 15.6 84 1.6 ESE 11 20 6 11 1023.2 1020.3 0.0
21/07:30am 17.5 17.7 15.7 89 1.1 ESE 9 17 5 9 1022.7 1019.8 0.0
21/07:00am 17.0 17.6 15.7 92 0.8 ESE 7 13 4 7 1022.2 1019.2 0.0
21/06:30am 16.3 17.0 15.7 96 0.4 ESE 6 13 3 7 1021.6 1018.7 0.0
21/06:00am 16.0 16.6 15.2 95 0.5 ESE 6 11 3 6 1021.1 1018.2 0.0
21/05:30am 16.1 16.1 15.1 94 0.6 ESE 9 17 5 9 1021.0 1018.1 0.0
21/05:00am 16.1 16.7 15.3 95 0.5 SE 6 11 3 6 1020.7 1017.7 0.0
21/04:30am 16.1 16.4 15.1 94 0.6 ESE 7 11 4 6 1020.6 1017.6 0.0
21/04:00am 16.3 16.9 15.2 93 0.7 ESE 6 13 3 7 1020.6 1017.6 0.0
21/03:30am 16.4 16.9 15.6 95 0.5 SE 7 15 4 8 1020.6 1017.6 0.0
21/03:00am 15.9 16.7 14.9 94 0.6 SE 4 7 2 4 1020.5 1017.5 0.0
21/02:30am 15.9 16.1 14.8 93 0.6 ESE 7 13 4 7 1020.7 1017.7 0.0
21/02:00am 16.3 16.5 14.8 91 0.9 ESE 7 13 4 7 1021.1 1018.2 0.0
21/01:30am 16.4 16.8 14.8 90 0.9 E 6 11 3 6 1021.4 1018.5 0.0
21/01:00am 16.8 17.0 14.8 88 1.2 E 7 13 4 7 1021.7 1018.8 0.0
21/12:30am 17.0 17.2 15.7 92 0.8 E 9 19 5 10 1022.2 1019.2 0.0
21/12:00am 17.6 18.0 16.3 92 0.8 E 9 17 5 9 1022.5 1019.5 0.0
 
Date/Time
EST
Temp
°C
App
Temp
°C
Dew
Point
Rel
Hum
%
Delta-T
°C
Wind Press
QNH
hPa
Press
MSL
hPa
Rain
since 9 am
mm
Dir
 
Spd
km/h
Gust
km/h
Spd
kts
Gust
kts
20/11:30pm 18.1 19.1 16.3 89 1.1 E 6 15 3 8 1022.5 1019.5 0.0
20/11:00pm 18.1 18.8 16.1 88 1.2 ENE 7 15 4 8 1022.8 1019.9 0.0
20/10:30pm 18.4 18.7 16.0 86 1.5 ENE 9 20 5 11 1023.0 1020.1 0.0
20/10:00pm 18.5 17.7 16.1 86 1.5 ENE 15 28 8 15 1022.8 1019.9 0.0
20/09:30pm 18.6 18.4 16.6 88 1.2 ENE 13 22 7 12 1022.7 1019.8 0.0
20/09:00pm 18.6 18.3 16.4 87 1.3 NE 13 24 7 13 1022.6 1019.7 0.0
20/08:30pm 18.6 18.4 16.6 88 1.2 NE 13 22 7 12 1022.2 1019.2 0.0
20/08:00pm 18.9 18.1 16.1 84 1.7 NE 15 22 8 12 1021.8 1018.9 0.0
20/07:30pm 19.1 18.7 16.1 83 1.8 NE 13 20 7 11 1021.6 1018.7 0.0
20/07:00pm 19.5 19.3 15.6 78 2.4 NNE 11 19 6 10 1021.2 1018.3 0.0
20/06:30pm 20.0 19.9 15.0 73 3.0 NNE 9 17 5 9 1021.0 1018.1 0.0
20/06:00pm 21.0 20.4 14.6 67 3.8 NNE 11 20 6 11 1020.7 1017.7 0.0
20/05:30pm 21.5 21.0 14.9 66 4.0 NNE 11 20 6 11 1020.3 1017.3 0.0
20/05:00pm 22.4 21.6 14.0 59 5.0 NE 11 22 6 12 1019.9 1017.0 0.0
20/04:30pm 22.5 20.4 13.6 57 5.3 NE 17 30 9 16 1019.7 1016.8 0.0
20/04:00pm 23.4 21.8 13.8 54 5.7 NNE 15 28 8 15 1019.4 1016.5 0.0
20/03:30pm 24.2 21.8 12.5 48 6.9 NNE 17 32 9 17 1019.2 1016.2 0.0
20/03:00pm 24.9 21.9 11.8 44 7.6 NNE 19 33 10 18 1019.3 1016.3 0.0
20/02:30pm 25.6 23.4 12.1 43 7.9 NNE 15 32 8 17 1019.4 1016.5 0.0
20/02:00pm 24.9 23.3 11.5 43 7.8 NE 11 26 6 14 1019.6 1016.7 0.0
20/01:30pm 26.3 25.1 11.6 40 8.6 ENE 9 20 5 11 1020.1 1017.1 0.0
20/01:00pm 26.1 25.2 11.5 40 8.5 ENE 7 15 4 8 1020.6 1017.6 0.0
20/12:30pm 25.8 24.1 11.2 40 8.5 ESE 11 20 6 11 1021.2 1018.3 0.0
20/12:00pm 24.9 23.3 11.5 43 7.7 ENE 11 19 6 10 1021.7 1018.8 0.0
20/11:30am 24.0 22.4 11.7 46 7.1 ESE 11 28 6 15 1022.3 1019.3 0.0
20/11:00am 23.8 21.2 10.8 44 7.4 ESE 15 26 8 14 1022.9 1020.0 0.0
20/10:30am 23.7 21.7 10.0 42 7.7 ESE 11 22 6 12 1023.0 1020.1 0.0
20/10:00am 23.2 21.9 12.5 51 6.2 ESE 11 24 6 13 1023.4 1020.5 0.0
20/09:30am 21.9 20.8 13.0 57 5.2 ESE 11 22 6 12 1023.6 1020.7 0.0
20/09:00am 20.9 19.7 12.8 60 4.7 ESE 11 22 6 12 1023.9 1020.9 0.0
20/08:30am 20.7 20.0 13.2 62 4.4 ESE 9 20 5 11 1023.7 1020.8 0.0

Other Formats:

Comma delimited format used in spreadsheet applications
http://www.bom.gov.au/fwo/IDQ60801/IDQ60801.95293.axf

JavaScript Object Notation format (JSON) in row-major order
http://www.bom.gov.au/fwo/IDQ60801/IDQ60801.95293.json